sensor_id;sensor_type;location;lat;lon;timestamp;P1;durP1;ratioP1;P2;durP2;ratioP2
33266;SDS011;19638;49.080;11.896;2024-03-29T00:03:04;8.73;;;3.47;;
33266;SDS011;19638;49.080;11.896;2024-03-29T00:07:06;5.20;;;3.73;;
33266;SDS011;19638;49.080;11.896;2024-03-29T00:11:08;6.10;;;3.50;;
33266;SDS011;19638;49.080;11.896;2024-03-29T00:15:12;3.87;;;3.07;;
33266;SDS011;19638;49.080;11.896;2024-03-29T00:19:13;6.07;;;3.40;;
33266;SDS011;19638;49.080;11.896;2024-03-29T00:23:14;4.60;;;2.90;;
33266;SDS011;19638;49.080;11.896;2024-03-29T00:27:16;7.27;;;3.23;;
33266;SDS011;19638;49.080;11.896;2024-03-29T00:31:20;5.57;;;3.37;;
33266;SDS011;19638;49.080;11.896;2024-03-29T00:35:21;5.90;;;3.50;;
33266;SDS011;19638;49.080;11.896;2024-03-29T00:39:22;6.17;;;3.27;;
33266;SDS011;19638;49.080;11.896;2024-03-29T00:43:24;3.37;;;3.07;;
33266;SDS011;19638;49.080;11.896;2024-03-29T00:47:27;9.97;;;3.40;;
33266;SDS011;19638;49.080;11.896;2024-03-29T00:51:29;5.07;;;3.07;;
33266;SDS011;19638;49.080;11.896;2024-03-29T00:55:30;5.97;;;3.40;;
33266;SDS011;19638;49.080;11.896;2024-03-29T00:59:32;5.67;;;3.70;;
33266;SDS011;19638;49.080;11.896;2024-03-29T01:03:35;5.70;;;3.70;;
33266;SDS011;19638;49.080;11.896;2024-03-29T01:07:41;10.93;;;3.60;;
33266;SDS011;19638;49.080;11.896;2024-03-29T01:11:43;4.43;;;3.40;;
33266;SDS011;19638;49.080;11.896;2024-03-29T01:15:44;5.00;;;3.37;;
33266;SDS011;19638;49.080;11.896;2024-03-29T01:19:48;3.83;;;3.40;;
33266;SDS011;19638;49.080;11.896;2024-03-29T01:23:49;4.63;;;3.47;;
33266;SDS011;19638;49.080;11.896;2024-03-29T01:27:51;4.83;;;3.40;;
33266;SDS011;19638;49.080;11.896;2024-03-29T01:31:52;4.73;;;3.60;;
33266;SDS011;19638;49.080;11.896;2024-03-29T01:35:56;9.93;;;3.70;;
33266;SDS011;19638;49.080;11.896;2024-03-29T01:39:57;6.40;;;3.77;;
33266;SDS011;19638;49.080;11.896;2024-03-29T01:43:58;4.57;;;3.80;;
33266;SDS011;19638;49.080;11.896;2024-03-29T01:48:00;3.83;;;3.43;;
33266;SDS011;19638;49.080;11.896;2024-03-29T01:52:07;4.90;;;3.93;;
33266;SDS011;19638;49.080;11.896;2024-03-29T01:56:09;4.73;;;3.60;;
33266;SDS011;19638;49.080;11.896;2024-03-29T02:00:11;6.63;;;3.83;;
33266;SDS011;19638;49.080;11.896;2024-03-29T02:04:12;4.87;;;3.93;;
33266;SDS011;19638;49.080;11.896;2024-03-29T02:08:16;4.70;;;3.83;;
33266;SDS011;19638;49.080;11.896;2024-03-29T02:12:18;6.43;;;4.20;;
33266;SDS011;19638;49.080;11.896;2024-03-29T02:16:19;6.40;;;4.20;;
33266;SDS011;19638;49.080;11.896;2024-03-29T02:20:20;6.10;;;3.67;;
33266;SDS011;19638;49.080;11.896;2024-03-29T02:24:25;6.67;;;4.00;;
33266;SDS011;19638;49.080;11.896;2024-03-29T02:28:26;4.43;;;3.87;;
33266;SDS011;19638;49.080;11.896;2024-03-29T02:32:28;5.67;;;4.13;;
33266;SDS011;19638;49.080;11.896;2024-03-29T02:36:29;7.77;;;4.03;;
33266;SDS011;19638;49.080;11.896;2024-03-29T02:40:33;4.63;;;3.37;;
33266;SDS011;19638;49.080;11.896;2024-03-29T02:44:34;7.33;;;3.60;;
33266;SDS011;19638;49.080;11.896;2024-03-29T02:48:36;6.37;;;3.50;;
33266;SDS011;19638;49.080;11.896;2024-03-29T02:52:37;5.23;;;3.53;;
33266;SDS011;19638;49.080;11.896;2024-03-29T02:56:41;5.50;;;3.13;;
33266;SDS011;19638;49.080;11.896;2024-03-29T03:00:42;3.60;;;3.17;;
